createdAt,value
2023-01-11T00:01:53.138Z,98692.03
2023-01-11T00:04:20.474Z,98559.16
2023-01-11T00:06:47.136Z,98678.78
2023-01-11T00:09:13.813Z,98678.84
2023-01-11T00:11:40.353Z,98599.16
2023-01-11T00:14:06.930Z,98633.84
2023-01-11T00:16:33.480Z,98662.13
2023-01-11T00:19:00.093Z,98647.28
2023-01-11T00:21:26.845Z,98643.41
2023-01-11T00:23:53.541Z,98636.94
2023-01-11T00:26:20.082Z,98626.91
2023-01-11T00:28:50.303Z,98624.47
2023-01-11T00:31:17.624Z,98615.66
2023-01-11T00:33:44.256Z,98609.81
2023-01-11T00:36:10.876Z,98570.22
2023-01-11T00:39:06.665Z,98586.16
2023-01-11T00:41:51.748Z,98581.53
2023-01-11T00:44:36.763Z,98529.44
2023-01-11T00:47:21.949Z,98567.00
2023-01-11T00:49:48.567Z,98551.25
2023-01-11T00:52:15.221Z,98546.63
2023-01-11T00:54:42.351Z,98524.44
2023-01-11T00:57:09.657Z,98518.19
2023-01-11T00:59:39.360Z,98509.06
2023-01-11T01:02:07.061Z,98502.56
2023-01-11T01:04:33.831Z,98488.25
2023-01-11T01:07:00.765Z,98407.09
2023-01-11T01:09:27.701Z,98493.69
2023-01-11T01:11:54.298Z,98467.31
2023-01-11T01:14:28.655Z,98462.03
2023-01-11T01:17:04.064Z,98461.09
2023-01-11T01:19:31.198Z,98279.28
2023-01-11T01:21:59.145Z,98412.94
2023-01-11T01:24:28.776Z,98437.25
2023-01-11T01:26:56.288Z,98405.34
2023-01-11T01:29:22.986Z,98432.94
2023-01-11T01:31:49.660Z,98375.03
2023-01-11T01:34:16.454Z,98401.09
2023-01-11T01:36:43.169Z,98376.38
2023-01-11T01:39:11.184Z,98387.50
2023-01-11T01:41:38.559Z,98388.88
2023-01-11T01:44:51.226Z,98380.72
2023-01-11T01:47:20.703Z,98370.56
2023-01-11T01:49:47.416Z,98349.88
2023-01-11T01:52:14.086Z,98353.81
2023-01-11T01:54:44.670Z,98311.72
2023-01-11T01:57:23.776Z,98349.59
2023-01-11T01:59:52.506Z,98341.84
2023-01-11T02:02:22.509Z,98288.34
2023-01-11T02:04:49.509Z,98132.97
2023-01-11T02:07:34.440Z,98319.28
2023-01-11T02:10:22.118Z,98303.94
2023-01-11T02:12:57.115Z,98305.13
2023-01-11T02:15:24.532Z,98295.91
2023-01-11T02:17:51.747Z,98159.13
2023-01-11T02:20:32.611Z,98277.66
2023-01-11T02:23:20.079Z,98265.09
2023-01-11T02:26:04.876Z,98257.19
2023-01-11T02:28:40.477Z,98243.16
2023-01-11T02:31:28.311Z,98244.53
2023-01-11T02:34:04.387Z,98168.28
2023-01-11T02:36:49.728Z,98223.63
2023-01-11T02:39:25.604Z,98211.41
2023-01-11T02:42:34.584Z,98203.41
2023-01-11T02:45:19.564Z,98190.84
2023-01-11T02:47:59.554Z,98182.81
2023-01-11T02:50:42.405Z,98169.84
2023-01-11T02:53:25.378Z,98157.31
2023-01-11T02:55:57.111Z,98146.00
2023-01-11T02:58:27.296Z,98144.75
2023-01-11T03:00:55.919Z,98142.16
2023-01-11T03:03:24.922Z,98130.47
2023-01-11T03:06:00.211Z,98061.88
2023-01-11T03:08:51.660Z,98115.88
2023-01-11T03:11:48.563Z,98101.41
2023-01-11T03:14:46.236Z,98096.13
2023-01-11T03:17:50.369Z,98088.69
2023-01-11T03:20:27.012Z,98083.28
2023-01-11T03:23:18.361Z,98066.97
2023-01-11T03:26:15.651Z,98060.41
2023-01-11T03:29:06.927Z,98056.56
2023-01-11T03:31:51.041Z,98044.94
2023-01-11T03:34:29.709Z,98029.56
2023-01-11T03:37:22.443Z,98033.34
2023-01-11T03:40:00.576Z,97961.34
2023-01-11T03:42:28.984Z,98014.44
2023-01-11T03:44:57.940Z,98008.47
2023-01-11T03:47:27.043Z,98009.94
2023-01-11T03:50:02.322Z,98000.88
2023-01-11T03:52:34.026Z,97993.34
2023-01-11T03:55:04.269Z,97977.47
2023-01-11T03:57:37.662Z,97977.38
2023-01-11T04:00:06.387Z,97965.22
2023-01-11T04:02:40.277Z,97956.16
2023-01-11T04:05:09.373Z,97946.34
2023-01-11T04:07:36.083Z,97940.88
2023-01-11T04:10:03.939Z,97926.66
2023-01-11T04:12:30.671Z,97881.81
2023-01-11T04:14:57.254Z,97920.44
2023-01-11T04:17:24.056Z,97910.66
2023-01-11T04:19:50.653Z,97880.19
2023-01-11T04:22:17.314Z,97898.63
2023-01-11T04:24:43.858Z,97891.09
2023-01-11T04:27:10.478Z,97877.91
2023-01-11T04:29:37.014Z,97874.22
2023-01-11T04:32:04.096Z,97843.69
2023-01-11T04:34:30.656Z,97841.56
2023-01-11T04:36:57.199Z,97835.41
2023-01-11T04:39:23.758Z,97834.97
2023-01-11T04:42:08.840Z,97831.66
2023-01-11T04:44:35.428Z,97771.81
2023-01-11T04:47:01.996Z,97815.81
2023-01-11T04:49:28.577Z,97816.53
2023-01-11T04:51:55.116Z,97797.16
2023-01-11T04:54:21.686Z,97795.91
2023-01-11T04:56:48.225Z,97789.84
2023-01-11T04:59:14.829Z,97780.31
2023-01-11T05:01:41.445Z,97769.75
2023-01-11T05:04:08.065Z,97748.88
2023-01-11T05:06:34.660Z,97550.78
2023-01-11T05:09:01.229Z,97720.69
2023-01-11T05:11:27.799Z,97717.00
2023-01-11T05:13:54.577Z,97710.03
2023-01-11T05:16:26.085Z,97696.81
2023-01-11T05:18:57.635Z,97704.72
2023-01-11T05:21:27.182Z,97697.47
2023-01-11T05:23:54.522Z,97548.19
2023-01-11T05:26:24.348Z,97674.03
2023-01-11T05:28:52.261Z,97671.75
2023-01-11T05:31:19.395Z,97603.50
2023-01-11T05:33:46.292Z,97656.53
2023-01-11T05:36:18.636Z,97645.91
2023-01-11T05:38:46.347Z,97501.91
2023-01-11T05:41:13.239Z,97636.97
2023-01-11T05:43:58.749Z,97622.59
2023-01-11T05:46:27.019Z,97582.09
2023-01-11T05:48:56.639Z,97610.53
2023-01-11T05:51:23.267Z,97609.59
2023-01-11T05:53:49.993Z,97590.84
2023-01-11T05:56:16.694Z,97580.03
2023-01-11T05:58:43.215Z,97438.63
2023-01-11T06:01:12.384Z,97549.13
2023-01-11T06:03:38.962Z,97552.00
2023-01-11T06:06:05.870Z,97550.56
2023-01-11T06:08:32.424Z,97544.75
2023-01-11T06:10:59.121Z,97489.69
2023-01-11T06:13:28.702Z,97409.56
2023-01-11T06:16:04.311Z,97370.75
2023-01-11T06:18:36.740Z,97421.66
2023-01-11T06:21:04.791Z,97365.69
2023-01-11T06:23:33.113Z,97509.09
2023-01-11T06:26:05.176Z,97510.56
2023-01-11T06:28:32.012Z,97447.09
2023-01-11T06:30:59.624Z,97471.09
2023-01-11T06:33:28.386Z,97500.00
2023-01-11T06:35:56.213Z,97504.88
2023-01-11T06:38:24.879Z,97505.53
2023-01-11T06:41:11.279Z,97511.88
2023-01-11T06:43:41.528Z,97521.13
2023-01-11T06:46:13.503Z,97507.09
2023-01-11T06:48:40.461Z,97508.38
2023-01-11T06:51:07.164Z,97505.00
2023-01-11T06:53:33.810Z,97469.50
2023-01-11T06:56:00.578Z,97473.38
2023-01-11T06:58:27.677Z,97500.75
2023-01-11T07:00:56.927Z,97500.63
2023-01-11T07:03:25.544Z,97499.09
2023-01-11T07:05:53.649Z,97488.88
2023-01-11T07:08:20.599Z,97481.47
2023-01-11T07:10:47.320Z,97483.16
2023-01-11T07:13:17.148Z,97380.72
2023-01-11T07:15:45.762Z,97472.06
2023-01-11T07:18:12.805Z,97427.00
2023-01-11T07:20:39.515Z,97458.56
2023-01-11T07:23:07.729Z,97460.69
2023-01-11T07:25:34.737Z,97313.66
2023-01-11T07:28:06.088Z,97485.22
2023-01-11T07:30:51.912Z,97476.63
2023-01-11T07:33:22.595Z,97490.72
2023-01-11T07:35:49.667Z,97491.69
2023-01-11T07:38:16.369Z,97503.59
2023-01-11T07:40:42.993Z,97294.16
2023-01-11T07:43:14.340Z,97504.91
2023-01-11T07:45:49.584Z,97462.41
2023-01-11T07:48:27.839Z,97514.91
2023-01-11T07:50:54.893Z,97523.97
2023-01-11T07:53:25.366Z,97534.31
2023-01-11T07:55:52.028Z,97531.88
2023-01-11T07:58:18.598Z,97532.22
2023-01-11T08:00:46.087Z,97537.53
2023-01-11T08:03:12.964Z,97419.56
2023-01-11T08:05:40.606Z,97475.56
2023-01-11T08:08:07.846Z,97548.22
2023-01-11T08:10:34.840Z,97556.53
2023-01-11T08:13:20.108Z,97533.56
2023-01-11T08:15:46.755Z,97574.34
2023-01-11T08:18:14.096Z,97503.78
2023-01-11T08:20:41.037Z,97591.47
2023-01-11T08:23:09.691Z,97597.28
2023-01-11T08:25:36.743Z,97593.63
2023-01-11T08:28:05.698Z,97564.00
2023-01-11T08:30:32.400Z,97604.44
2023-01-11T08:33:01.770Z,97608.94
2023-01-11T08:35:28.813Z,97616.50
2023-01-11T08:37:55.369Z,97616.47
2023-01-11T08:40:24.142Z,97591.19
2023-01-11T08:42:57.578Z,97633.59
2023-01-11T08:45:25.255Z,97640.00
2023-01-11T08:47:52.489Z,97642.63
2023-01-11T08:50:22.292Z,97636.44
2023-01-11T08:52:51.000Z,97557.94
2023-01-11T08:55:18.483Z,97543.47
2023-01-11T08:57:45.908Z,97658.19
2023-01-11T09:00:13.373Z,97651.06
2023-01-11T09:02:40.095Z,97658.56
2023-01-11T09:05:06.945Z,97662.38
2023-01-11T09:07:33.517Z,97707.63
2023-01-11T09:10:00.192Z,97674.75
2023-01-11T09:12:27.678Z,97678.84
2023-01-11T09:14:54.306Z,97636.97
2023-01-11T09:17:21.179Z,97652.00
2023-01-11T09:19:47.738Z,97689.75
2023-01-11T09:22:14.544Z,97701.66
2023-01-11T09:24:41.104Z,97697.28
2023-01-11T09:27:07.816Z,97708.47
2023-01-11T09:29:37.117Z,97555.69
2023-01-11T09:32:04.359Z,97716.59
2023-01-11T09:34:31.052Z,97693.44
2023-01-11T09:37:00.530Z,97723.53
2023-01-11T09:39:28.722Z,97738.44
2023-01-11T09:42:15.119Z,97736.59
2023-01-11T09:44:50.853Z,97740.31
2023-01-11T09:47:30.145Z,97754.88
2023-01-11T09:50:00.817Z,97756.19
2023-01-11T09:52:36.236Z,97766.38
2023-01-11T09:55:03.927Z,97757.56
2023-01-11T09:57:46.010Z,97777.47
2023-01-11T10:00:33.370Z,97787.84
2023-01-11T10:03:20.799Z,97793.78
2023-01-11T10:05:56.017Z,97799.78
2023-01-11T10:18:28.493Z,97800.47
2023-01-11T10:18:38.447Z,97809.22
2023-01-11T10:20:39.870Z,97816.97
2023-01-11T10:23:21.597Z,97806.97
2023-01-11T10:25:51.746Z,97815.56
2023-01-11T10:28:28.135Z,97824.25
2023-01-11T10:30:58.855Z,97823.88
2023-01-11T10:33:37.387Z,97824.38
2023-01-11T10:36:21.102Z,97835.16
2023-01-11T10:38:57.095Z,97852.28
2023-01-11T10:41:38.623Z,97844.09
2023-01-11T10:44:08.349Z,97835.69
2023-01-11T10:46:39.945Z,97838.63
2023-01-11T10:49:35.945Z,97849.59
2023-01-11T10:52:14.025Z,97861.75
2023-01-11T10:54:46.826Z,97862.91
2023-01-11T10:57:20.310Z,97855.16
2023-01-11T11:00:24.716Z,97865.19
2023-01-11T11:02:57.295Z,97870.84
2023-01-11T11:06:06.304Z,97868.75
2023-01-11T11:08:48.349Z,97876.19
2023-01-11T11:11:25.924Z,97854.66
2023-01-11T11:14:20.326Z,97880.94
2023-01-11T11:16:56.284Z,97614.53
2023-01-11T11:19:29.162Z,97874.78
2023-01-11T11:21:55.814Z,97873.59
2023-01-11T11:24:42.575Z,97876.28
2023-01-11T11:27:20.876Z,97886.81
2023-01-11T11:29:54.525Z,97837.94
2023-01-11T11:32:24.129Z,97890.06
2023-01-11T11:34:52.187Z,97895.38
2023-01-11T11:37:32.873Z,97900.31
2023-01-11T11:39:59.541Z,97895.06
2023-01-11T11:42:26.720Z,97890.78
2023-01-11T11:45:11.335Z,97896.19
2023-01-11T11:47:38.290Z,97899.72
2023-01-11T11:50:42.672Z,97899.06
2023-01-11T11:53:19.571Z,97892.84
2023-01-11T11:55:46.921Z,97891.72
2023-01-11T11:58:20.601Z,97896.00
2023-01-11T12:00:50.032Z,97898.00
2023-01-11T12:03:23.657Z,97767.75
2023-01-11T12:05:58.466Z,97903.50
2023-01-11T12:08:25.977Z,97907.25
2023-01-11T12:10:57.532Z,97752.44
2023-01-11T12:13:35.735Z,97930.00
2023-01-11T12:16:04.948Z,97917.97
2023-01-11T12:18:41.406Z,97902.34
2023-01-11T12:21:26.513Z,97903.97
2023-01-11T12:24:18.343Z,97907.06
2023-01-11T12:27:22.363Z,97914.72
2023-01-11T12:30:09.891Z,97913.84
2023-01-11T12:32:56.476Z,97907.25
2023-01-11T12:35:57.279Z,97909.97
2023-01-11T12:38:39.291Z,97906.69
2023-01-11T12:41:21.158Z,97919.09
2023-01-11T12:44:02.737Z,97787.59
2023-01-11T12:46:51.084Z,97915.38
2023-01-11T12:49:29.639Z,97915.25
2023-01-11T12:52:11.484Z,97922.84
2023-01-11T12:55:05.585Z,97919.66
2023-01-11T12:58:00.233Z,97918.72
2023-01-11T13:00:42.864Z,97819.28
2023-01-11T13:03:29.565Z,97926.41
2023-01-11T13:06:06.688Z,97929.63
2023-01-11T13:08:53.144Z,97938.03
2023-01-11T13:11:36.148Z,97934.00
2023-01-11T13:14:05.708Z,97932.28
2023-01-11T13:16:49.123Z,97946.84
2023-01-11T13:19:37.619Z,97923.47
2023-01-11T13:22:11.508Z,97945.34
2023-01-11T13:24:40.608Z,97953.31
2023-01-11T13:27:14.615Z,97946.47
2023-01-11T13:29:45.613Z,97945.72
2023-01-11T13:32:19.770Z,97946.97
2023-01-11T13:35:01.567Z,97949.09
2023-01-11T13:37:34.211Z,97947.63
2023-01-11T13:40:35.423Z,97840.44
2023-01-11T13:43:19.705Z,97829.44
2023-01-11T13:45:59.123Z,97949.09
2023-01-11T13:48:31.608Z,97949.78
2023-01-11T13:51:25.871Z,97952.66
2023-01-11T13:54:01.986Z,97807.50
2023-01-11T13:56:34.198Z,97970.00
2023-01-11T13:59:22.900Z,97864.69
2023-01-11T14:02:09.707Z,97957.69
2023-01-11T14:04:46.864Z,97842.41
2023-01-11T14:07:37.287Z,97915.25
2023-01-11T14:10:35.193Z,97886.81
2023-01-11T14:14:07.219Z,97963.78
2023-01-11T14:16:52.277Z,97887.94
2023-01-11T14:19:40.795Z,97954.72
2023-01-11T14:22:36.543Z,97969.84
2023-01-11T14:25:06.123Z,97973.91
2023-01-11T14:27:53.692Z,97974.50
2023-01-11T14:30:55.187Z,97977.06
2023-01-11T14:33:32.178Z,97981.09
2023-01-11T14:36:40.232Z,97984.25
2023-01-11T14:39:22.164Z,97985.22
2023-01-11T14:41:58.750Z,97989.44
2023-01-11T14:44:42.036Z,97991.50
2023-01-11T14:47:35.748Z,97927.47
2023-01-11T14:50:18.516Z,97958.66
2023-01-11T14:52:46.291Z,97984.41
2023-01-11T14:55:22.521Z,97814.47
2023-01-11T14:57:52.216Z,97990.00
2023-01-11T15:00:23.974Z,97996.00
2023-01-11T15:02:51.195Z,97888.34
2023-01-11T15:05:29.750Z,97997.97
2023-01-11T15:08:14.536Z,97997.69
2023-01-11T15:10:52.150Z,97989.66
2023-01-11T15:13:23.510Z,97957.19
2023-01-11T15:16:10.009Z,97963.16
2023-01-11T15:18:45.641Z,97978.72
2023-01-11T15:21:22.800Z,98006.63
2023-01-11T15:23:55.658Z,98015.84
2023-01-11T15:26:24.129Z,98019.47
2023-01-11T15:28:53.921Z,97970.91
2023-01-11T15:31:44.072Z,98020.66
2023-01-11T15:34:24.593Z,98027.97
2023-01-11T15:36:54.664Z,98028.63
2023-01-11T15:39:33.000Z,97990.78
2023-01-11T15:42:33.207Z,97517.88
2023-01-11T15:45:27.381Z,98019.78
2023-01-11T15:48:32.088Z,98013.63
2023-01-11T15:51:24.208Z,98014.59
2023-01-11T15:54:06.487Z,97989.56
2023-01-11T15:56:58.206Z,98015.47
2023-01-11T16:00:03.213Z,98011.44
2023-01-11T16:02:37.150Z,98013.78
2023-01-11T16:05:20.813Z,97989.38
2023-01-11T16:08:05.436Z,98019.84
2023-01-11T16:10:56.774Z,98028.09
2023-01-11T16:13:53.646Z,98027.09
2023-01-11T16:16:24.458Z,97948.09
2023-01-11T16:19:00.415Z,98042.28
2023-01-11T16:21:37.623Z,98031.78
2023-01-11T16:24:07.285Z,98040.28
2023-01-11T16:26:39.878Z,98045.31
2023-01-11T16:29:12.873Z,97882.97
2023-01-11T16:32:03.266Z,98044.56
2023-01-11T16:34:41.045Z,98021.00
2023-01-11T16:37:31.326Z,98063.47
2023-01-11T16:40:24.464Z,98042.66
2023-01-11T16:42:54.768Z,98034.97
2023-01-11T16:45:38.883Z,98053.06
2023-01-11T16:48:06.925Z,97849.72
2023-01-11T16:50:34.978Z,97992.75
2023-01-11T16:53:05.910Z,98049.34
2023-01-11T16:55:40.798Z,98013.78
2023-01-11T16:58:20.896Z,98066.47
2023-01-11T17:00:57.368Z,98067.78
2023-01-11T17:03:25.825Z,98063.75
2023-01-11T17:05:58.752Z,98065.38
2023-01-11T17:08:37.133Z,98037.19
2023-01-11T17:11:19.718Z,97913.69
2023-01-11T17:14:20.570Z,98057.16
2023-01-11T17:16:50.352Z,97922.06
2023-01-11T17:19:20.091Z,97882.47
2023-01-11T17:21:50.657Z,98047.59
2023-01-11T17:24:19.517Z,98061.19
2023-01-11T17:26:49.943Z,98065.34
2023-01-11T17:29:38.983Z,98062.25
2023-01-11T17:32:08.300Z,98065.75
2023-01-11T17:34:37.195Z,98064.41
2023-01-11T17:37:12.914Z,98058.19
2023-01-11T17:39:44.582Z,98060.38
2023-01-11T17:42:32.749Z,98052.13
2023-01-11T17:45:14.371Z,98063.94
2023-01-11T17:47:45.617Z,98071.47
2023-01-11T17:50:36.215Z,98065.53
2023-01-11T17:53:06.520Z,98068.78
2023-01-11T17:55:33.705Z,98030.13
2023-01-11T17:58:25.853Z,98079.44
2023-01-11T18:01:08.982Z,98072.28
2023-01-11T18:03:49.469Z,98071.41
2023-01-11T18:06:36.100Z,98021.84
2023-01-11T18:09:06.523Z,97949.75
2023-01-11T18:11:39.610Z,98064.25
2023-01-11T18:14:16.519Z,98080.94
2023-01-11T18:17:15.687Z,98063.50
2023-01-11T18:19:44.420Z,97878.63
2023-01-11T18:22:31.030Z,98069.34
2023-01-11T18:24:59.815Z,98066.44
2023-01-11T18:27:28.038Z,98071.06
2023-01-11T18:29:56.969Z,98072.97
2023-01-11T18:32:23.652Z,98078.34
2023-01-11T18:34:53.305Z,98093.72
2023-01-11T18:37:20.591Z,97980.38
2023-01-11T18:39:47.171Z,98042.72
2023-01-11T18:42:20.395Z,98070.78
2023-01-11T18:44:49.364Z,98077.16
2023-01-11T18:47:20.309Z,98081.59
2023-01-11T18:49:48.495Z,98070.63
2023-01-11T18:52:15.466Z,98059.78
2023-01-11T18:54:42.993Z,98078.25
2023-01-11T18:57:09.718Z,98027.03
2023-01-11T18:59:42.309Z,98072.28
2023-01-11T19:02:39.071Z,98059.03
2023-01-11T19:05:12.286Z,98055.03
2023-01-11T19:07:39.366Z,98049.19
2023-01-11T19:10:06.710Z,98048.34
2023-01-11T19:12:33.535Z,98043.78
2023-01-11T19:15:00.146Z,98036.41
2023-01-11T19:17:28.467Z,98032.81
2023-01-11T19:19:55.031Z,98033.41
2023-01-11T19:22:24.525Z,98031.56
2023-01-11T19:24:53.283Z,98039.09
2023-01-11T19:27:19.872Z,98038.22
2023-01-11T19:29:46.504Z,98038.22
2023-01-11T19:32:13.388Z,98037.63
2023-01-11T19:34:39.958Z,98043.09
2023-01-11T19:37:06.602Z,98039.03
2023-01-11T19:39:33.257Z,97991.34
2023-01-11T19:42:01.952Z,97833.72
2023-01-11T19:44:38.821Z,98022.28
2023-01-11T19:47:11.887Z,98016.97
2023-01-11T19:49:40.027Z,98023.59
2023-01-11T19:52:14.642Z,97890.19
2023-01-11T19:54:42.776Z,97991.66
2023-01-11T19:57:20.522Z,97992.88
2023-01-11T19:59:48.937Z,97972.22
2023-01-11T20:02:17.812Z,98020.66
2023-01-11T20:04:44.744Z,98047.81
2023-01-11T20:07:13.252Z,98031.78
2023-01-11T20:09:39.924Z,98026.53
2023-01-11T20:12:08.902Z,98027.97
2023-01-11T20:14:36.513Z,98033.84
2023-01-11T20:17:03.316Z,98030.84
2023-01-11T20:19:29.937Z,98036.59
2023-01-11T20:21:56.563Z,97954.38
2023-01-11T20:24:29.700Z,97964.78
2023-01-11T20:26:58.465Z,98035.13
2023-01-11T20:29:25.387Z,98080.50
2023-01-11T20:31:52.336Z,98036.06
2023-01-11T20:34:19.203Z,98047.75
2023-01-11T20:36:46.092Z,98036.66
2023-01-11T20:39:12.820Z,98033.34
2023-01-11T20:41:48.918Z,97973.50
2023-01-11T20:44:32.011Z,98003.84
2023-01-11T20:46:59.585Z,98009.88
2023-01-11T20:49:29.237Z,98013.25
2023-01-11T20:51:56.621Z,98048.63
2023-01-11T20:54:23.460Z,98046.63
2023-01-11T20:56:50.361Z,98048.50
2023-01-11T20:59:19.747Z,98055.81
2023-01-11T21:01:50.315Z,98064.66
2023-01-11T21:04:18.224Z,97909.97
2023-01-11T21:06:48.322Z,98019.91
2023-01-11T21:09:17.767Z,98039.78
2023-01-11T21:11:44.567Z,98041.81
2023-01-11T21:14:14.332Z,98038.50
2023-01-11T21:16:42.451Z,98036.44
2023-01-11T21:19:12.323Z,98040.72
2023-01-11T21:21:38.915Z,98045.69
2023-01-11T21:24:06.060Z,98021.84
2023-01-11T21:26:34.524Z,98048.63
2023-01-11T21:29:04.165Z,97987.28
2023-01-11T21:31:33.937Z,98037.13
2023-01-11T21:34:01.628Z,98037.56
2023-01-11T21:36:30.548Z,98029.19
2023-01-11T21:38:58.894Z,98030.47
2023-01-11T21:41:47.386Z,98026.53
2023-01-11T21:44:15.273Z,98031.78
2023-01-11T21:46:43.021Z,98023.97
2023-01-11T21:49:11.321Z,98011.38
2023-01-11T21:51:39.112Z,97998.19
2023-01-11T21:54:08.856Z,97876.41
2023-01-11T21:56:35.571Z,98030.69
2023-01-11T21:59:02.349Z,98026.41
2023-01-11T22:01:29.716Z,97976.59
2023-01-11T22:03:57.282Z,97987.22
2023-01-11T22:06:23.891Z,98027.16
2023-01-11T22:08:50.659Z,98030.19
2023-01-11T22:11:18.157Z,98036.66
2023-01-11T22:13:45.081Z,98033.41
2023-01-11T22:16:14.663Z,98026.47
2023-01-11T22:18:42.552Z,98033.28
2023-01-11T22:21:12.145Z,98029.50
2023-01-11T22:23:39.531Z,98023.06
2023-01-11T22:26:14.262Z,98002.31
2023-01-11T22:28:59.723Z,98024.34
2023-01-11T22:31:28.319Z,98026.50
2023-01-11T22:33:56.084Z,98027.78
2023-01-11T22:36:23.641Z,98059.03
2023-01-11T22:38:50.606Z,98028.94
2023-01-11T22:41:17.540Z,98028.00
2023-01-11T22:43:45.190Z,98028.69
2023-01-11T22:46:14.087Z,98031.69
2023-01-11T22:48:40.836Z,98023.88
2023-01-11T22:51:08.455Z,97879.47
2023-01-11T22:53:36.897Z,98028.47
2023-01-11T22:56:04.043Z,98025.66
2023-01-11T22:58:30.768Z,98027.16
2023-01-11T23:00:57.387Z,98034.69
2023-01-11T23:03:23.979Z,97972.22
2023-01-11T23:05:50.633Z,98032.44
2023-01-11T23:08:17.155Z,98025.94
2023-01-11T23:10:43.729Z,97865.56
2023-01-11T23:13:29.116Z,97997.75
2023-01-11T23:15:56.152Z,98059.63
2023-01-11T23:18:22.960Z,98016.28
2023-01-11T23:20:49.626Z,98024.28
2023-01-11T23:23:16.190Z,98021.31
2023-01-11T23:25:42.751Z,98032.09
2023-01-11T23:28:09.297Z,98015.41
2023-01-11T23:30:37.003Z,98036.88
2023-01-11T23:33:03.595Z,98035.69
2023-01-11T23:35:30.200Z,98039.22
2023-01-11T23:37:56.720Z,98027.44
2023-01-11T23:40:23.321Z,98029.31
2023-01-11T23:42:49.869Z,98016.53
2023-01-11T23:45:16.488Z,98002.38
2023-01-11T23:47:43.036Z,97999.00
2023-01-11T23:50:10.059Z,98008.66
2023-01-11T23:52:36.700Z,98012.72
2023-01-11T23:55:03.533Z,98006.97
2023-01-11T23:57:30.115Z,98002.13
2023-01-11T23:59:56.790Z,98014.38
